^^
Your Local Weather - Clay, NY Station Historical Data
Daily Summary for March 23, 2017 Units:  English    Metric   Both
« Previous Day
Next Day »
Daily Weekly Monthly Yearly Custom
  High: Low: Average:
Temperature: 35.8 °F 7.2 °F 23.2 °F
Dew Point: 15.6 °F 3.3 °F 8.2 °F
Humidity: 87% 29% 56%
Wind Speed: 4.0mph 0.0mph 0.9mph
Wind Gust: 7.0mph - -
Wind- - WSW
Pressure: 30.61 in 30.39 in -
Precipitation: 0.02 in    
Historical Graphs
 
 
Tabular Data for March 23, 2017
Time Temperature Dew Point Pressure Wind Wind Speed Wind Gust Humidity Rainfall Rate (Hourly) solar
00:02 17.3 °F 6.8 °F 30.48 in Calm     63% 0.00 in 0 W/m2
00:08 17.2 °F 7.1 °F 30.48 in Calm     64% 0.00 in 0 W/m2
00:14 17.1 °F 7.0 °F 30.48 in Calm   2.0 mph 64% 0.00 in 0 W/m2
00:20 17.0 °F 6.9 °F 30.48 in Calm     64% 0.00 in 0 W/m2
00:32 16.5 °F 6.8 °F 30.48 in Calm     65% 0.00 in 0 W/m2
00:38 16.4 °F 7.0 °F 30.48 in Calm     66% 0.00 in 0 W/m2
00:44 16.3 °F 6.9 °F 30.48 in Calm     66% 0.00 in 0 W/m2
00:50 16.1 °F 6.7 °F 30.48 in Calm     66% 0.00 in 0 W/m2
00:56 15.9 °F 6.9 °F 30.48 in Calm     67% 0.00 in 0 W/m2
01:02 15.6 °F 6.6 °F 30.49 in Calm     67% 0.00 in 0 W/m2
01:08 15.4 °F 6.7 °F 30.49 in Calm     68% 0.00 in 0 W/m2
01:14 15.3 °F 6.6 °F 30.49 in Calm     68% 0.00 in 0 W/m2
01:20 14.9 °F 6.2 °F 30.49 in Calm     68% 0.00 in 0 W/m2
01:26 14.6 °F 6.3 °F 30.49 in Calm     69% 0.00 in 0 W/m2
01:32 14.4 °F 6.1 °F 30.49 in Calm     69% 0.00 in 0 W/m2
01:38 14.3 °F 6.3 °F 30.49 in Calm     70% 0.00 in 0 W/m2
01:44 14.3 °F 6.3 °F 30.50 in Calm     70% 0.00 in 0 W/m2
01:50 14.1 °F 6.4 °F 30.50 in Calm     71% 0.00 in 0 W/m2
01:56 13.8 °F 6.1 °F 30.50 in Calm     71% 0.00 in 0 W/m2
02:02 13.4 °F 5.7 °F 30.50 in Calm     71% 0.00 in 0 W/m2
02:08 13.0 °F 5.4 °F 30.50 in Calm     71% 0.00 in 0 W/m2
02:14 12.7 °F 5.4 °F 30.50 in Calm     72% 0.00 in 0 W/m2
02:20 12.5 °F 5.5 °F 30.50 in Calm     73% 0.00 in 0 W/m2
02:26 12.3 °F 5.3 °F 30.50 in Calm     73% 0.00 in 0 W/m2
02:32 12.2 °F 5.5 °F 30.50 in Calm     74% 0.00 in 0 W/m2
02:38 12.1 °F 5.4 °F 30.51 in Calm   3.0 mph 74% 0.00 in 0 W/m2
02:44 12.4 °F 6.0 °F 30.51 in East 1.0 mph 1.0 mph 75% 0.00 in 0 W/m2
02:50 12.7 °F 6.3 °F 30.52 in Calm     75% 0.00 in 0 W/m2
02:56 12.7 °F 6.3 °F 30.51 in Calm     75% 0.00 in 0 W/m2
03:02 12.5 °F 6.1 °F 30.51 in Calm     75% 0.00 in 0 W/m2
03:08 12.1 °F 5.4 °F 30.51 in Calm     74% 0.00 in 0 W/m2
03:14 11.8 °F 5.4 °F 30.51 in Calm     75% 0.00 in 0 W/m2
03:20 11.4 °F 5.0 °F 30.52 in Calm     75% 0.00 in 0 W/m2
03:26 11.1 °F 4.7 °F 30.52 in Calm     75% 0.00 in 0 W/m2
03:32 10.8 °F 4.7 °F 30.52 in Calm     76% 0.00 in 0 W/m2
03:38 10.5 °F 4.4 °F 30.52 in Calm     76% 0.00 in 0 W/m2
03:44 10.3 °F 4.2 °F 30.52 in Calm     76% 0.00 in 0 W/m2
03:50 10.2 °F 4.4 °F 30.52 in Calm     77% 0.00 in 0 W/m2
03:56 10.0 °F 4.2 °F 30.52 in Calm     77% 0.00 in 0 W/m2
04:02 10.0 °F 4.5 °F 30.52 in Calm     78% 0.00 in 0 W/m2
04:08 9.9 °F 4.4 °F 30.52 in Calm     78% 0.00 in 0 W/m2
04:14 9.7 °F 4.2 °F 30.52 in Calm     78% 0.00 in 0 W/m2
04:20 9.6 °F 4.1 °F 30.52 in Calm     78% 0.00 in 0 W/m2
04:26 9.3 °F 3.8 °F 30.52 in Calm     78% 0.00 in 0 W/m2
04:32 9.1 °F 3.6 °F 30.52 in Calm     78% 0.00 in 0 W/m2
04:44 9.0 °F 3.8 °F 30.53 in Calm     79% 0.00 in 0 W/m2
04:50 8.8 °F 3.9 °F 30.53 in Calm     80% 0.00 in 0 W/m2
04:56 8.8 °F 3.9 °F 30.53 in Calm     80% 0.00 in 0 W/m2
05:02 8.7 °F 4.1 °F 30.54 in Calm     81% 0.00 in 0 W/m2
05:08 8.5 °F 3.9 °F 30.54 in Calm     81% 0.00 in 0 W/m2
05:14 8.4 °F 3.8 °F 30.54 in Calm     81% 0.00 in 0 W/m2
05:20 8.2 °F 3.6 °F 30.54 in Calm     81% 0.00 in 0 W/m2
05:26 8.0 °F 3.6 °F 30.54 in Calm     82% 0.00 in 0 W/m2
05:38 8.2 °F 4.1 °F 30.55 in Calm     83% 0.00 in 0 W/m2
05:44 8.1 °F 3.7 °F 30.55 in Calm     82% 0.00 in 0 W/m2
05:50 7.9 °F 3.8 °F 30.55 in Calm     83% 0.00 in 0 W/m2
05:56 7.5 °F 3.4 °F 30.55 in Calm     83% 0.00 in 0 W/m2
06:02 7.4 °F 3.3 °F 30.55 in Calm     83% 0.00 in 0 W/m2
06:08 7.4 °F 3.3 °F 30.56 in Calm     83% 0.00 in 0 W/m2
06:14 7.4 °F 3.3 °F 30.56 in Calm     83% 0.00 in 0 W/m2
06:20 7.7 °F 3.9 °F 30.56 in Calm     84% 0.00 in 0 W/m2
06:26 8.0 °F 4.2 °F 30.57 in Calm     84% 0.00 in 0 W/m2
06:32 7.9 °F 4.1 °F 30.57 in Calm     84% 0.00 in 0 W/m2
06:38 7.6 °F 3.8 °F 30.57 in Calm     84% 0.00 in 0 W/m2
06:44 7.5 °F 3.7 °F 30.57 in Calm     84% 0.00 in 0 W/m2
06:50 7.5 °F 3.7 °F 30.57 in Calm     84% 0.00 in 0 W/m2
06:56 7.5 °F 3.7 °F 30.57 in Calm     84% 0.00 in 0 W/m2
07:02 7.4 °F 3.6 °F 30.57 in Calm     84% 0.00 in 5 W/m2
07:08 7.3 °F 3.5 °F 30.57 in Calm     84% 0.00 in 7 W/m2
07:20 7.2 °F 3.4 °F 30.57 in Calm     84% 0.00 in 12 W/m2
07:26 7.4 °F 3.8 °F 30.58 in Calm     85% 0.00 in 14 W/m2
07:32 7.8 °F 4.2 °F 30.58 in Calm     85% 0.00 in 18 W/m2
07:38 8.1 °F 4.5 °F 30.58 in Calm     85% 0.00 in 23 W/m2
07:44 8.4 °F 4.8 °F 30.58 in Calm     85% 0.00 in 39 W/m2
07:50 9.0 °F 5.7 °F 30.58 in Calm     86% 0.00 in 53 W/m2
07:56 9.7 °F 6.4 °F 30.58 in Calm     86% 0.00 in 44 W/m2
08:02 10.4 °F 7.0 °F 30.58 in Calm     86% 0.00 in 60 W/m2
08:08 11.2 °F 7.8 °F 30.58 in Calm     86% 0.00 in 100 W/m2
08:14 13.0 °F 9.9 °F 30.59 in Calm     87% 0.00 in 88 W/m2
08:20 14.4 °F 11.2 °F 30.59 in Calm     87% 0.00 in 105 W/m2
08:26 15.8 °F 12.4 °F 30.59 in Calm     86% 0.00 in 160 W/m2
08:32 16.7 °F 12.4 °F 30.59 in Calm     83% 0.00 in 144 W/m2
08:44 18.1 °F 11.8 °F 30.60 in Calm     76% 0.00 in 84 W/m2
08:50 18.7 °F 11.8 °F 30.60 in Calm   1.0 mph 74% 0.00 in 165 W/m2
08:56 19.2 °F 11.3 °F 30.60 in Calm   2.0 mph 71% 0.00 in 167 W/m2
09:02 19.9 °F 11.0 °F 30.60 in SSW 1.0 mph 1.0 mph 68% 0.00 in 213 W/m2
09:08 20.4 °F 10.8 °F 30.60 in SSW 1.0 mph 1.0 mph 66% 0.00 in 174 W/m2
09:14 20.9 °F 10.6 °F 30.60 in Calm   2.0 mph 64% 0.00 in 146 W/m2
09:20 21.5 °F 10.8 °F 30.60 in SW 1.0 mph 1.0 mph 63% 0.00 in 188 W/m2
09:26 22.4 °F 10.6 °F 30.60 in SW 1.0 mph 1.0 mph 60% 0.00 in 197 W/m2
09:32 22.8 °F 10.2 °F 30.60 in SW 1.0 mph 1.0 mph 58% 0.00 in 336 W/m2
09:38 23.6 °F 10.2 °F 30.60 in Calm   4.0 mph 56% 0.00 in 396 W/m2
09:44 24.3 °F 10.4 °F 30.61 in SW 1.0 mph 3.0 mph 55% 0.00 in 420 W/m2
09:50 24.8 °F 9.6 °F 30.60 in WSW 1.0 mph 3.0 mph 52% 0.00 in 496 W/m2
09:56 25.7 °F 10.5 °F 30.60 in WSW 2.0 mph 3.0 mph 52% 0.00 in 515 W/m2
10:02 26.1 °F 10.0 °F 30.60 in WSW 1.0 mph 2.0 mph 50% 0.00 in 534 W/m2
10:08 26.7 °F 10.1 °F 30.60 in SSW 1.0 mph 5.0 mph 49% 0.00 in 554 W/m2
10:14 26.8 °F 10.2 °F 30.61 in WSW 2.0 mph 3.0 mph 49% 0.00 in 568 W/m2
10:20 26.6 °F 9.5 °F 30.60 in SSW 2.0 mph 2.0 mph 48% 0.00 in 587 W/m2
10:26 27.2 °F 9.6 °F 30.60 in WSW 2.0 mph 4.0 mph 47% 0.00 in 605 W/m2
10:32 27.2 °F 9.1 °F 30.60 in WSW 1.0 mph 2.0 mph 46% 0.00 in 622 W/m2
10:38 27.5 °F 9.9 °F 30.60 in West 2.0 mph 4.0 mph 47% 0.00 in 635 W/m2
10:44 28.9 °F 10.2 °F 30.60 in NNW 2.0 mph 2.0 mph 45% 0.00 in 647 W/m2
10:50 28.4 °F 8.2 °F 30.60 in WNW 1.0 mph 1.0 mph 42% 0.00 in 661 W/m2
10:56 28.7 °F 10.0 °F 30.60 in West 1.0 mph 6.0 mph 45% 0.00 in 677 W/m2
11:02 28.4 °F 8.7 °F 30.60 in SW 3.0 mph 3.0 mph 43% 0.00 in 689 W/m2
11:08 28.5 °F 8.8 °F 30.60 in West 2.0 mph 3.0 mph 43% 0.00 in 703 W/m2
11:14 29.2 °F 8.4 °F 30.60 in NW 1.0 mph 3.0 mph 41% 0.00 in 715 W/m2
11:18 29.5 °F 8.7 °F 30.60 in SW 2.0 mph 4.0 mph 41% 0.00 in 721 W/m2
11:26 29.0 °F 9.3 °F 30.60 in WNW 2.0 mph 5.0 mph 43% 0.00 in 733 W/m2
11:32 29.2 °F 8.9 °F 30.60 in SW 3.0 mph 5.0 mph 42% 0.00 in 744 W/m2
11:38 28.5 °F 8.8 °F 30.60 in SW 3.0 mph 5.0 mph 43% 0.00 in 751 W/m2
11:44 29.3 °F 10.1 °F 30.60 in West 2.0 mph 3.0 mph 44% 0.00 in 758 W/m2
11:50 30.0 °F 9.1 °F 30.60 in WSW 2.0 mph 3.0 mph 41% 0.00 in 768 W/m2
11:56 30.1 °F 10.3 °F 30.60 in West 3.0 mph 3.0 mph 43% 0.00 in 773 W/m2
12:02 30.3 °F 8.3 °F 30.60 in SW 3.0 mph 3.0 mph 39% 0.00 in 780 W/m2
12:08 30.1 °F 9.2 °F 30.60 in WNW 3.0 mph 5.0 mph 41% 0.00 in 786 W/m2
12:14 31.1 °F 8.4 °F 30.60 in WSW 2.0 mph 3.0 mph 38% 0.00 in 793 W/m2
12:22 31.1 °F 9.0 °F 30.59 in SW 3.0 mph 3.0 mph 39% 0.00 in 798 W/m2
12:28 31.6 °F 9.4 °F 30.58 in WNW 2.0 mph 3.0 mph 39% 0.00 in 803 W/m2
12:34 31.6 °F 7.7 °F 30.58 in NNW 2.0 mph 6.0 mph 36% 0.00 in 807 W/m2
12:40 31.4 °F 9.3 °F 30.58 in NNW 3.0 mph 3.0 mph 39% 0.00 in 807 W/m2
12:52 32.1 °F 9.9 °F 30.58 in West 2.0 mph 2.0 mph 39% 0.00 in 812 W/m2
12:58 31.3 °F 8.0 °F 30.58 in WSW 2.0 mph 4.0 mph 37% 0.00 in 814 W/m2
13:04 31.5 °F 8.8 °F 30.58 in SW 3.0 mph 4.0 mph 38% 0.00 in 812 W/m2
13:10 31.2 °F 8.5 °F 30.58 in WSW 3.0 mph 5.0 mph 38% 0.00 in 812 W/m2
13:16 31.8 °F 9.0 °F 30.58 in West 2.0 mph 5.0 mph 38% 0.00 in 814 W/m2
13:22 32.2 °F 8.8 °F 30.58 in SW 2.0 mph 5.0 mph 37% 0.00 in 814 W/m2
13:28 32.3 °F 10.1 °F 30.58 in WSW 2.0 mph 5.0 mph 39% 0.00 in 812 W/m2
13:34 31.8 °F 9.0 °F 30.57 in South 2.0 mph 5.0 mph 38% 0.00 in 812 W/m2
13:40 32.0 °F 8.6 °F 30.57 in NW 3.0 mph 3.0 mph 37% 0.00 in 809 W/m2
13:46 32.2 °F 8.8 °F 30.57 in WNW 3.0 mph 5.0 mph 37% 0.00 in 807 W/m2
13:58 32.2 °F 9.4 °F 30.57 in West 3.0 mph 5.0 mph 38% 0.00 in 798 W/m2
14:04 32.4 °F 9.0 °F 30.57 in NW 3.0 mph 5.0 mph 37% 0.00 in 793 W/m2
14:10 32.8 °F 9.9 °F 30.57 in WNW 4.0 mph 4.0 mph 38% 0.00 in 788 W/m2
14:16 32.7 °F 9.3 °F 30.56 in WSW 3.0 mph 4.0 mph 37% 0.00 in 780 W/m2
14:22 32.2 °F 9.4 °F 30.56 in WSW 3.0 mph 3.0 mph 38% 0.00 in 775 W/m2
14:28 32.3 °F 8.9 °F 30.55 in WSW 3.0 mph 7.0 mph 37% 0.00 in 770 W/m2
14:34 33.3 °F 9.2 °F 30.55 in WSW 3.0 mph 4.0 mph 36% 0.00 in 761 W/m2
14:40 32.9 °F 8.2 °F 30.55 in South 3.0 mph 3.0 mph 35% 0.00 in 752 W/m2
14:46 32.6 °F 8.6 °F 30.55 in West 4.0 mph 5.0 mph 36% 0.00 in 744 W/m2
14:52 33.2 °F 9.1 °F 30.54 in West 3.0 mph 3.0 mph 36% 0.00 in 733 W/m2
14:58 32.9 °F 8.2 °F 30.55 in WSW 3.0 mph 7.0 mph 35% 0.00 in 724 W/m2
15:04 33.8 °F 9.6 °F 30.54 in SW 3.0 mph 5.0 mph 36% 0.00 in 714 W/m2
15:10 33.8 °F 9.0 °F 30.54 in West 2.0 mph 4.0 mph 35% 0.00 in 703 W/m2
15:16 33.7 °F 7.6 °F 30.53 in WSW 3.0 mph 4.0 mph 33% 0.00 in 689 W/m2
15:22 34.0 °F 9.2 °F 30.53 in West 2.0 mph 7.0 mph 35% 0.00 in 680 W/m2
15:28 33.6 °F 8.2 °F 30.53 in SW 3.0 mph 7.0 mph 34% 0.00 in 666 W/m2
15:34 34.1 °F 9.3 °F 30.53 in SW 3.0 mph 3.0 mph 35% 0.00 in 656 W/m2
15:40 34.8 °F 8.6 °F 30.53 in WNW 3.0 mph 3.0 mph 33% 0.00 in 643 W/m2
15:46 34.8 °F 8.6 °F 30.53 in WSW 2.0 mph 4.0 mph 33% 0.00 in 629 W/m2
15:52 34.1 °F 9.3 °F 30.53 in SW 2.0 mph 4.0 mph 35% 0.00 in 613 W/m2
15:58 33.7 °F 7.6 °F 30.52 in SW 2.0 mph 4.0 mph 33% 0.00 in 598 W/m2
16:04 33.5 °F 8.1 °F 30.52 in WSW 2.0 mph 5.0 mph 34% 0.00 in 575 W/m2
16:10 34.3 °F 7.4 °F 30.52 in West 3.0 mph 3.0 mph 32% 0.00 in 570 W/m2
16:16 33.7 °F 7.6 °F 30.52 in SSW 3.0 mph 3.0 mph 33% 0.00 in 552 W/m2
16:22 35.0 °F 9.4 °F 30.51 in WSW 2.0 mph 3.0 mph 34% 0.00 in 534 W/m2
16:28 34.6 °F 7.0 °F 30.51 in WSW 2.0 mph 4.0 mph 31% 0.00 in 519 W/m2
16:34 34.7 °F 6.4 °F 30.50 in WSW 2.0 mph 2.0 mph 30% 0.00 in 501 W/m2
16:40 35.0 °F 6.6 °F 30.50 in WSW 1.0 mph 2.0 mph 30% 0.00 in 485 W/m2
16:46 35.0 °F 8.1 °F 30.50 in WSW 2.0 mph 6.0 mph 32% 0.00 in 471 W/m2
16:52 34.8 °F 7.2 °F 30.50 in WSW 2.0 mph 2.0 mph 31% 0.00 in 452 W/m2
16:58 35.2 °F 7.5 °F 30.50 in SW 2.0 mph 5.0 mph 31% 0.00 in 434 W/m2
17:04 35.2 °F 6.8 °F 30.50 in WNW 2.0 mph 4.0 mph 30% 0.00 in 415 W/m2
17:10 35.2 °F 6.8 °F 30.49 in North 1.0 mph 5.0 mph 30% 0.00 in 397 W/m2
17:16 35.5 °F 7.8 °F 30.49 in WNW 1.0 mph 5.0 mph 31% 0.00 in 378 W/m2
17:22 35.7 °F 6.5 °F 30.49 in West 1.0 mph 3.0 mph 29% 0.00 in 359 W/m2
17:28 35.8 °F 6.6 °F 30.49 in West 1.0 mph 3.0 mph 29% 0.00 in 341 W/m2
17:34 35.4 °F 7.7 °F 30.49 in West 1.0 mph 1.0 mph 31% 0.00 in 320 W/m2
17:40 35.1 °F 9.5 °F 30.49 in WSW 1.0 mph 3.0 mph 34% 0.00 in 301 W/m2
17:46 34.4 °F 7.5 °F 30.49 in SSW 1.0 mph 3.0 mph 32% 0.00 in 283 W/m2
17:52 34.1 °F 8.0 °F 30.49 in SW 2.0 mph 3.0 mph 33% 0.00 in 260 W/m2
17:58 34.3 °F 8.1 °F 30.49 in South 1.0 mph 3.0 mph 33% 0.00 in 225 W/m2
18:10 33.5 °F 8.1 °F 30.48 in South 3.0 mph 3.0 mph 34% 0.00 in 181 W/m2
18:16 33.7 °F 7.6 °F 30.48 in SSW 2.0 mph 3.0 mph 33% 0.00 in 178 W/m2
18:22 33.8 °F 8.4 °F 30.49 in SSW 2.0 mph 2.0 mph 34% 0.00 in 163 W/m2
18:28 33.4 °F 7.3 °F 30.48 in South 2.0 mph 4.0 mph 33% 0.00 in 144 W/m2
18:34 33.3 °F 7.9 °F 30.47 in South 2.0 mph 4.0 mph 34% 0.00 in 47 W/m2
18:40 32.8 °F 7.5 °F 30.47 in South 1.0 mph 3.0 mph 34% 0.00 in 65 W/m2
18:46 32.7 °F 8.0 °F 30.47 in South 2.0 mph 3.0 mph 35% 0.00 in 63 W/m2
18:52 33.0 °F 8.3 °F 30.47 in Calm   1.0 mph 35% 0.00 in 62 W/m2
18:58 32.8 °F 8.1 °F 30.47 in Calm   2.0 mph 35% 0.00 in 37 W/m2
19:04 32.5 °F 8.5 °F 30.47 in Calm     36% 0.00 in 14 W/m2
19:10 32.1 °F 6.8 °F 30.47 in Calm   1.0 mph 34% 0.00 in 11 W/m2
19:16 32.1 °F 7.5 °F 30.48 in Calm   1.0 mph 35% 0.00 in 5 W/m2
19:22 31.7 °F 8.4 °F 30.49 in Calm     37% 0.00 in 0 W/m2
19:28 30.5 °F 11.1 °F 30.48 in Calm     44% 0.00 in 0 W/m2
19:34 29.9 °F 9.6 °F 30.48 in Calm     42% 0.00 in 0 W/m2
19:40 29.3 °F 10.1 °F 30.49 in Calm     44% 0.00 in 0 W/m2
19:46 29.0 °F 10.3 °F 30.49 in Calm     45% 0.00 in 0 W/m2
19:52 28.5 °F 13.1 °F 30.49 in Calm     52% 0.00 in 0 W/m2
19:58 28.0 °F 13.5 °F 30.49 in Calm     54% 0.00 in 0 W/m2
20:04 27.7 °F 15.6 °F 30.49 in Calm     60% 0.00 in 0 W/m2
20:10 27.4 °F 13.7 °F 30.49 in Calm     56% 0.00 in 0 W/m2
20:16 27.1 °F 11.8 °F 30.49 in Calm     52% 0.00 in 0 W/m2
20:22 26.9 °F 9.8 °F 30.49 in Calm     48% 0.00 in 0 W/m2
20:28 26.8 °F 10.6 °F 30.49 in Calm     50% 0.00 in 0 W/m2
20:34 26.8 °F 10.6 °F 30.49 in Calm     50% 0.00 in 0 W/m2
20:40 26.9 °F 10.7 °F 30.49 in Calm     50% 0.00 in 0 W/m2
20:46 27.1 °F 12.6 °F 30.48 in Calm   1.0 mph 54% 0.00 in 0 W/m2
20:52 26.8 °F 14.0 °F 30.47 in Calm     58% 0.00 in 0 W/m2
20:58 26.7 °F 11.8 °F 30.47 in Calm     53% 0.00 in 0 W/m2
21:04 26.9 °F 12.0 °F 30.47 in Calm     53% 0.00 in 0 W/m2
21:10 26.8 °F 11.9 °F 30.47 in Calm     53% 0.00 in 0 W/m2
21:16 26.7 °F 12.7 °F 30.47 in Calm     55% 0.00 in 0 W/m2
21:22 26.5 °F 12.1 °F 30.46 in Calm     54% 0.00 in 0 W/m2
21:28 26.4 °F 13.6 °F 30.45 in Calm     58% 0.00 in 0 W/m2
21:34 26.1 °F 12.1 °F 30.45 in Calm     55% 0.00 in 0 W/m2
21:40 26.0 °F 12.4 °F 30.45 in Calm   1.0 mph 56% 0.00 in 0 W/m2
21:46 26.1 °F 11.7 °F 30.45 in Calm   1.0 mph 54% 0.00 in 0 W/m2
21:52 26.0 °F 10.8 °F 30.46 in Calm     52% 0.00 in 0 W/m2
21:58 25.8 °F 13.0 °F 30.45 in Calm     58% 0.00 in 0 W/m2
22:04 25.5 °F 12.8 °F 30.45 in Calm     58% 0.00 in 0 W/m2
22:10 25.4 °F 11.5 °F 30.45 in Calm   1.0 mph 55% 0.00 in 0 W/m2
22:16 25.4 °F 12.3 °F 30.45 in Calm   1.0 mph 57% 0.00 in 0 W/m2
22:22 25.3 °F 10.5 °F 30.45 in Calm     53% 0.00 in 0 W/m2
22:28 25.4 °F 11.9 °F 30.45 in Calm     56% 0.00 in 0 W/m2
22:34 25.5 °F 12.8 °F 30.45 in Calm     58% 0.00 in 0 W/m2
22:40 25.5 °F 11.1 °F 30.44 in Calm   1.0 mph 54% 0.00 in 0 W/m2
22:46 25.8 °F 12.6 °F 30.44 in Calm   1.0 mph 57% 0.00 in 0 W/m2
22:52 25.9 °F 12.7 °F 30.44 in Calm     57% 0.00 in 0 W/m2
22:58 26.3 °F 11.9 °F 30.44 in Calm     54% 0.00 in 0 W/m2
23:04 26.9 °F 11.2 °F 30.44 in Calm     51% 0.00 in 0 W/m2
23:10 27.2 °F 12.7 °F 30.43 in Calm     54% 0.00 in 0 W/m2
23:16 27.2 °F 12.3 °F 30.43 in Calm   1.0 mph 53% 0.00 in 0 W/m2
23:22 27.4 °F 13.3 °F 30.42 in Calm   1.0 mph 55% 0.00 in 0 W/m2
23:28 27.6 °F 11.8 °F 30.42 in Calm   1.0 mph 51% 0.00 in 0 W/m2
23:34 27.8 °F 10.6 °F 30.42 in Calm   2.0 mph 48% 0.00 in 0 W/m2
23:40 28.2 °F 10.5 °F 30.41 in ESE 1.0 mph 1.0 mph 47% 0.00 in 0 W/m2
23:46 28.4 °F 10.7 °F 30.40 in ESE 1.0 mph 3.0 mph 47% 0.00 in 0 W/m2
23:52 28.6 °F 9.9 °F 30.39 in SE 1.0 mph 2.0 mph 45% 0.00 in 0 W/m2
23:58 28.8 °F 10.6 °F 30.39 in East 1.0 mph 2.0 mph 46% 0.00 in 0 W/m2
Country Meadow, Clay, NY, USA
Compliments of Weather Underground - 2 mb